createdAt,value
2018-09-29T00:00:54.259Z,83.53
2018-09-29T00:03:22.627Z,82.72
2018-09-29T00:05:50.968Z,82.37
2018-09-29T00:08:19.323Z,82.63
2018-09-29T00:10:47.703Z,83.02
2018-09-29T00:13:16.063Z,81.78
2018-09-29T00:15:44.427Z,80.92
2018-09-29T00:18:12.787Z,81.96
2018-09-29T00:20:41.216Z,83.81
2018-09-29T00:23:09.604Z,82.32
2018-09-29T00:25:37.947Z,82.64
2018-09-29T00:28:06.275Z,81.31
2018-09-29T00:30:34.623Z,82.37
2018-09-29T00:33:03.276Z,83.37
2018-09-29T00:35:31.611Z,82.12
2018-09-29T00:37:59.955Z,83.34
2018-09-29T00:40:28.362Z,82.38
2018-09-29T00:42:56.719Z,82.49
2018-09-29T00:45:25.040Z,83.78
2018-09-29T00:47:53.392Z,83.07
2018-09-29T00:50:21.727Z,84.02
2018-09-29T00:52:50.099Z,83.44
2018-09-29T00:55:18.449Z,82.13
2018-09-29T00:57:46.810Z,83.39
2018-09-29T01:00:15.206Z,83.64
2018-09-29T01:02:43.567Z,83.70
2018-09-29T01:05:11.892Z,83.28
2018-09-29T01:07:40.266Z,83.07
2018-09-29T01:10:08.731Z,84.12
2018-09-29T01:12:37.116Z,84.24
2018-09-29T01:15:05.507Z,83.85
2018-09-29T01:17:33.868Z,84.33
2018-09-29T01:20:02.233Z,85.18
2018-09-29T01:22:30.809Z,83.87
2018-09-29T01:24:59.172Z,84.31
2018-09-29T01:27:27.671Z,83.65
2018-09-29T01:29:56.265Z,84.96
2018-09-29T01:32:24.670Z,84.55
2018-09-29T01:34:53.150Z,84.48
2018-09-29T01:37:21.607Z,84.42
2018-09-29T01:39:50.037Z,84.43
2018-09-29T01:42:18.546Z,83.62
2018-09-29T01:44:46.895Z,84.90
2018-09-29T01:47:15.221Z,85.21
2018-09-29T01:49:43.626Z,85.94
2018-09-29T01:52:12.027Z,84.87
2018-09-29T01:54:40.406Z,84.79
2018-09-29T01:57:08.890Z,86.10
2018-09-29T01:59:37.252Z,86.26
2018-09-29T02:02:05.631Z,86.09
2018-09-29T02:04:33.978Z,86.97
2018-09-29T02:07:02.432Z,85.95
2018-09-29T02:09:30.795Z,86.48
2018-09-29T02:11:59.373Z,86.04
2018-09-29T02:14:27.763Z,86.41
2018-09-29T02:16:56.103Z,86.67
2018-09-29T02:19:24.466Z,85.19
2018-09-29T02:21:52.823Z,85.88
2018-09-29T02:24:21.184Z,86.42
2018-09-29T02:26:49.524Z,86.07
2018-09-29T02:29:17.923Z,86.36
2018-09-29T02:31:46.397Z,86.09
2018-09-29T02:34:14.802Z,86.14
2018-09-29T02:36:43.167Z,85.82
2018-09-29T02:39:12.659Z,85.44
2018-09-29T02:41:40.991Z,85.17
2018-09-29T02:44:09.686Z,86.11
2018-09-29T02:46:38.212Z,86.47
2018-09-29T02:49:06.703Z,86.12
2018-09-29T02:51:35.052Z,85.70
2018-09-29T02:54:03.484Z,85.40
2018-09-29T02:56:31.830Z,85.39
2018-09-29T02:59:00.155Z,86.10
2018-09-29T03:01:28.547Z,86.38
2018-09-29T03:03:56.887Z,85.59
2018-09-29T03:06:25.270Z,86.26
2018-09-29T03:08:53.633Z,84.72
2018-09-29T03:11:22.104Z,85.60
2018-09-29T03:13:50.678Z,85.67
2018-09-29T03:16:19.184Z,85.84
2018-09-29T03:18:47.600Z,85.40
2018-09-29T03:21:16.117Z,85.89
2018-09-29T03:23:44.449Z,85.91
2018-09-29T03:26:12.847Z,85.16
2018-09-29T03:28:41.162Z,84.92
2018-09-29T03:31:09.672Z,85.30
2018-09-29T03:33:38.051Z,85.81
2018-09-29T03:36:06.749Z,86.13
2018-09-29T03:38:35.521Z,86.23
2018-09-29T03:41:03.872Z,85.30
2018-09-29T03:43:32.195Z,84.58
2018-09-29T03:46:00.639Z,85.17
2018-09-29T03:48:28.978Z,85.00
2018-09-29T03:50:57.355Z,85.16
2018-09-29T03:53:25.775Z,85.78
2018-09-29T03:55:54.135Z,86.48
2018-09-29T03:58:22.478Z,85.87
2018-09-29T04:00:50.846Z,86.22
2018-09-29T04:03:19.489Z,85.90
2018-09-29T04:05:47.873Z,86.29
2018-09-29T04:08:16.354Z,86.68
2018-09-29T04:10:44.714Z,86.96
2018-09-29T04:13:13.146Z,87.08
2018-09-29T04:15:41.413Z,86.41
2018-09-29T04:18:09.718Z,85.69
2018-09-29T04:20:38.095Z,85.82
2018-09-29T04:23:06.548Z,86.08
2018-09-29T04:25:34.805Z,86.19
2018-09-29T04:28:03.136Z,85.74
2018-09-29T04:30:31.397Z,85.92
2018-09-29T04:32:59.693Z,85.63
2018-09-29T04:35:28.026Z,86.38
2018-09-29T04:37:56.310Z,86.82
2018-09-29T04:40:24.625Z,86.44
2018-09-29T04:42:52.927Z,86.71
2018-09-29T04:45:21.189Z,86.32
2018-09-29T04:47:49.482Z,86.33
2018-09-29T04:50:17.777Z,85.98
2018-09-29T04:52:46.126Z,86.71
2018-09-29T04:55:14.445Z,87.19
2018-09-29T04:57:42.726Z,86.71
2018-09-29T05:00:11.033Z,86.66
2018-09-29T05:02:39.319Z,86.16
2018-09-29T05:05:07.637Z,85.62
2018-09-29T05:07:35.897Z,86.17
2018-09-29T05:10:04.222Z,87.75
2018-09-29T05:12:32.477Z,88.37
2018-09-29T05:15:00.751Z,87.54
2018-09-29T05:17:29.109Z,86.67
2018-09-29T05:19:57.406Z,86.52
2018-09-29T05:22:25.677Z,87.11
2018-09-29T05:24:53.959Z,86.26
2018-09-29T05:27:22.222Z,86.41
2018-09-29T05:29:50.509Z,86.55
2018-09-29T05:32:18.797Z,86.59
2018-09-29T05:34:47.108Z,86.74
2018-09-29T05:37:15.361Z,86.76
2018-09-29T05:39:43.652Z,86.87
2018-09-29T05:42:11.905Z,86.02
2018-09-29T05:44:40.181Z,86.70
2018-09-29T05:47:08.481Z,86.69
2018-09-29T05:49:36.949Z,87.49
2018-09-29T05:52:05.238Z,86.69
2018-09-29T05:54:33.625Z,86.57
2018-09-29T05:57:01.919Z,87.18
2018-09-29T05:59:30.209Z,86.83
2018-09-29T06:01:58.480Z,87.10
2018-09-29T06:04:27.353Z,89.26
2018-09-29T06:06:55.870Z,89.12
2018-09-29T06:09:24.154Z,88.05
2018-09-29T06:11:52.486Z,86.96
2018-09-29T06:14:20.788Z,86.91
2018-09-29T06:16:49.046Z,86.39
2018-09-29T06:19:17.339Z,86.37
2018-09-29T06:21:45.615Z,88.49
2018-09-29T06:24:13.915Z,89.97
2018-09-29T06:26:42.179Z,88.38
2018-09-29T06:29:10.476Z,87.87
2018-09-29T06:31:38.763Z,87.80
2018-09-29T06:34:07.062Z,87.45
2018-09-29T06:36:35.482Z,87.31
2018-09-29T06:39:04.234Z,87.53
2018-09-29T06:41:32.582Z,87.43
2018-09-29T06:44:00.870Z,87.99
2018-09-29T06:46:29.998Z,88.48
2018-09-29T06:48:58.289Z,88.59
2018-09-29T06:51:26.666Z,88.32
2018-09-29T06:53:54.936Z,87.74
2018-09-29T06:56:23.223Z,88.40
2018-09-29T06:58:51.529Z,88.76
2018-09-29T07:01:19.819Z,89.39
2018-09-29T07:03:48.097Z,88.70
2018-09-29T07:06:16.396Z,88.07
2018-09-29T07:08:44.661Z,88.71
2018-09-29T07:11:13.448Z,87.91
2018-09-29T07:13:41.748Z,88.46
2018-09-29T07:16:10.066Z,88.17
2018-09-29T07:18:38.350Z,87.76
2018-09-29T07:21:06.672Z,87.22
2018-09-29T07:23:34.991Z,86.49
2018-09-29T07:26:03.314Z,86.02
2018-09-29T07:28:31.630Z,86.43
2018-09-29T07:30:59.956Z,85.90
2018-09-29T07:33:28.469Z,86.87
2018-09-29T07:35:56.604Z,85.50
2018-09-29T07:38:24.886Z,84.95
2018-09-29T07:40:53.264Z,85.37
2018-09-29T07:43:21.672Z,85.12
2018-09-29T07:46:13.123Z,85.61
2018-09-29T07:50:05.998Z,85.31
2018-09-29T07:52:34.350Z,84.23
2018-09-29T07:55:02.906Z,84.70
2018-09-29T07:57:31.253Z,83.84
2018-09-29T07:59:59.573Z,82.96
2018-09-29T08:02:27.942Z,82.02
2018-09-29T08:04:56.894Z,82.22
2018-09-29T08:07:25.262Z,81.80
2018-09-29T08:09:53.624Z,80.06
2018-09-29T08:12:23.022Z,80.16
2018-09-29T08:14:51.480Z,81.37
2018-09-29T08:17:20.100Z,80.28
2018-09-29T08:20:16.846Z,79.77
2018-09-29T08:22:49.607Z,78.69
2018-09-29T08:25:18.262Z,78.25
2018-09-29T08:27:46.615Z,78.12
2018-09-29T08:33:41.079Z,76.49
2018-09-29T08:36:14.969Z,76.42
2018-09-29T08:38:43.750Z,76.29
2018-09-29T08:41:12.844Z,76.10
2018-09-29T08:43:41.991Z,74.35
2018-09-29T08:46:16.078Z,75.19
2018-09-29T08:48:52.738Z,75.32
2018-09-29T08:51:26.218Z,73.48
2018-09-29T08:53:58.364Z,72.29
2018-09-29T08:56:37.969Z,71.75
2018-09-29T09:00:42.930Z,70.82
2018-09-29T09:03:17.141Z,71.22
2018-09-29T09:05:52.321Z,72.36
2018-09-29T09:08:23.809Z,72.13
2018-09-29T09:11:10.511Z,72.93
2018-09-29T09:13:46.344Z,73.23
2018-09-29T09:16:21.065Z,73.27
2018-09-29T09:18:59.430Z,71.96
2018-09-29T09:21:33.986Z,70.40
2018-09-29T09:24:18.201Z,69.35
2018-09-29T09:26:55.484Z,69.30
2018-09-29T09:29:47.400Z,67.01
2018-09-29T09:32:29.153Z,65.69
2018-09-29T09:35:13.426Z,66.98
2018-09-29T09:37:58.942Z,65.21
2018-09-29T09:40:33.316Z,65.10
2018-09-29T09:43:10.152Z,62.39
2018-09-29T09:45:40.319Z,62.03
2018-09-29T09:48:38.851Z,62.82
2018-09-29T09:51:28.416Z,63.02
2018-09-29T09:54:08.293Z,61.50
2018-09-29T09:56:50.081Z,61.19
2018-09-29T09:59:31.657Z,60.64
2018-09-29T10:02:12.758Z,61.60
2018-09-29T10:04:47.130Z,58.93
2018-09-29T10:07:28.356Z,55.61
2018-09-29T10:10:07.066Z,59.00
2018-09-29T10:12:47.388Z,56.98
2018-09-29T10:15:28.184Z,58.39
2018-09-29T10:18:07.761Z,58.50
2018-09-29T10:20:46.700Z,55.94
2018-09-29T10:23:26.405Z,52.73
2018-09-29T10:26:03.000Z,53.01
2018-09-29T10:28:37.250Z,54.32
2018-09-29T10:31:11.450Z,53.69
2018-09-29T10:33:44.783Z,52.99
2018-09-29T10:36:25.716Z,52.02
2018-09-29T10:39:01.098Z,50.28
2018-09-29T10:41:38.754Z,47.51
2018-09-29T10:44:20.993Z,46.39
2018-09-29T10:47:09.500Z,45.64
2018-09-29T10:49:56.762Z,48.65
2018-09-29T10:52:38.753Z,46.27
2018-09-29T10:55:17.046Z,44.04
2018-09-29T10:58:10.514Z,47.04
2018-09-29T11:01:00.256Z,45.84
2018-09-29T11:03:41.780Z,46.20
2018-09-29T11:06:11.112Z,46.69
2018-09-29T11:08:39.519Z,47.55
2018-09-29T11:11:07.961Z,45.11
2018-09-29T11:13:36.336Z,42.94
2018-09-29T11:16:04.728Z,43.51
2018-09-29T11:18:33.130Z,45.35
2018-09-29T11:21:01.693Z,46.53
2018-09-29T11:23:29.994Z,45.79
2018-09-29T11:25:58.401Z,46.37
2018-09-29T11:28:27.087Z,45.07
2018-09-29T11:30:55.445Z,46.50
2018-09-29T11:33:24.862Z,44.32
2018-09-29T11:35:53.242Z,46.85
2018-09-29T11:38:21.640Z,46.37
2018-09-29T11:40:50.577Z,45.61
2018-09-29T11:43:18.928Z,46.86
2018-09-29T11:45:47.254Z,44.55
2018-09-29T11:48:15.622Z,42.88
2018-09-29T11:50:44.142Z,43.29
2018-09-29T11:53:12.594Z,42.42
2018-09-29T11:55:40.980Z,43.93
2018-09-29T11:58:12.129Z,44.24
2018-09-29T12:01:06.628Z,42.01
2018-09-29T12:03:35.156Z,41.95
2018-09-29T12:06:03.988Z,42.96
2018-09-29T12:08:32.400Z,43.53
2018-09-29T12:11:00.889Z,45.59
2018-09-29T12:13:29.388Z,42.18
2018-09-29T12:15:57.912Z,44.37
2018-09-29T12:18:27.244Z,42.92
2018-09-29T12:20:55.794Z,39.86
2018-09-29T12:23:24.128Z,41.96
2018-09-29T12:25:52.590Z,41.98
2018-09-29T12:28:21.279Z,40.33
2018-09-29T12:30:50.099Z,40.86
2018-09-29T12:33:18.458Z,40.40
2018-09-29T12:35:47.188Z,43.39
2018-09-29T12:38:15.571Z,44.11
2018-09-29T12:40:43.923Z,44.11
2018-09-29T12:43:12.842Z,43.62
2018-09-29T12:45:41.222Z,43.58
2018-09-29T12:48:09.707Z,42.74
2018-09-29T12:50:38.090Z,45.19
2018-09-29T12:53:06.468Z,43.35
2018-09-29T12:55:34.932Z,44.76
2018-09-29T12:58:03.338Z,45.25
2018-09-29T13:00:31.688Z,45.15
2018-09-29T13:03:00.107Z,45.62
2018-09-29T13:05:28.473Z,45.92
2018-09-29T13:07:56.803Z,45.56
2018-09-29T13:10:25.187Z,45.90
2018-09-29T13:12:53.547Z,43.85
2018-09-29T13:15:22.183Z,43.77
2018-09-29T13:17:50.531Z,43.51
2018-09-29T13:20:18.923Z,41.74
2018-09-29T13:22:47.427Z,45.15
2018-09-29T13:25:15.751Z,42.80
2018-09-29T13:27:44.172Z,42.99
2018-09-29T13:30:12.557Z,44.86
2018-09-29T13:32:40.947Z,44.94
2018-09-29T13:35:09.423Z,44.82
2018-09-29T13:37:37.762Z,42.72
2018-09-29T13:40:06.633Z,43.17
2018-09-29T13:42:35.174Z,40.78
2018-09-29T13:45:03.586Z,44.23
2018-09-29T13:47:31.975Z,42.42
2018-09-29T13:50:00.375Z,42.66
2018-09-29T13:52:28.787Z,42.52
2018-09-29T13:54:57.228Z,43.15
2018-09-29T13:57:25.655Z,43.08
2018-09-29T13:59:53.986Z,42.40
2018-09-29T14:02:22.496Z,43.60
2018-09-29T14:04:50.884Z,43.15
2018-09-29T14:07:19.311Z,42.39
2018-09-29T14:09:47.668Z,41.96
2018-09-29T14:12:16.123Z,43.75
2018-09-29T14:14:44.864Z,44.00
2018-09-29T14:17:13.283Z,43.25
2018-09-29T14:19:41.698Z,44.11
2018-09-29T14:22:10.220Z,43.38
2018-09-29T14:24:38.766Z,42.67
2018-09-29T14:27:07.199Z,42.73
2018-09-29T14:29:35.558Z,42.30
2018-09-29T14:32:04.120Z,43.70
2018-09-29T14:34:32.654Z,44.14
2018-09-29T14:37:01.411Z,44.20
2018-09-29T14:39:29.942Z,45.22
2018-09-29T14:41:58.498Z,44.90
2018-09-29T14:44:26.941Z,44.82
2018-09-29T14:46:55.295Z,44.40
2018-09-29T14:49:23.819Z,44.12
2018-09-29T14:51:52.292Z,43.91
2018-09-29T14:54:20.759Z,43.97
2018-09-29T14:56:49.219Z,43.64
2018-09-29T14:59:17.587Z,45.32
2018-09-29T15:01:46.139Z,45.43
2018-09-29T15:04:14.678Z,44.65
2018-09-29T15:06:43.201Z,44.53
2018-09-29T15:09:12.630Z,45.45
2018-09-29T15:11:41.251Z,47.64
2018-09-29T15:14:10.391Z,47.51
2018-09-29T15:16:39.310Z,47.90
2018-09-29T15:19:07.683Z,47.15
2018-09-29T15:21:36.160Z,47.32
2018-09-29T15:24:04.688Z,48.36
2018-09-29T15:26:33.959Z,47.13
2018-09-29T15:29:02.799Z,47.31
2018-09-29T15:31:31.215Z,49.50
2018-09-29T15:33:59.604Z,50.07
2018-09-29T15:36:28.035Z,50.41
2018-09-29T15:38:57.889Z,50.05
2018-09-29T15:41:26.442Z,50.03
2018-09-29T15:43:54.979Z,50.20
2018-09-29T15:46:23.545Z,51.41
2018-09-29T15:48:52.156Z,50.75
2018-09-29T15:51:20.506Z,50.57
2018-09-29T15:53:49.071Z,50.96
2018-09-29T15:56:17.776Z,52.58
2018-09-29T15:58:46.272Z,52.81
2018-09-29T16:01:14.670Z,53.89
2018-09-29T16:03:43.258Z,54.76
2018-09-29T16:06:12.092Z,55.22
2018-09-29T16:08:40.872Z,55.25
2018-09-29T16:11:09.246Z,54.98
2018-09-29T16:13:37.611Z,55.79
2018-09-29T16:16:06.297Z,55.80
2018-09-29T16:18:34.867Z,55.51
2018-09-29T16:21:03.271Z,56.47
2018-09-29T16:23:31.616Z,56.41
2018-09-29T16:26:00.068Z,57.04
2018-09-29T16:28:28.432Z,57.67
2018-09-29T16:30:56.819Z,58.14
2018-09-29T16:33:25.165Z,58.43
2018-09-29T16:35:53.526Z,60.20
2018-09-29T16:38:21.866Z,60.32
2018-09-29T16:40:50.320Z,61.49
2018-09-29T16:43:18.844Z,62.12
2018-09-29T16:45:47.148Z,63.14
2018-09-29T16:48:15.490Z,63.91
2018-09-29T16:50:44.023Z,64.46
2018-09-29T16:53:12.907Z,64.82
2018-09-29T16:55:41.413Z,65.38
2018-09-29T16:58:09.886Z,65.96
2018-09-29T17:00:38.255Z,66.02
2018-09-29T17:03:06.736Z,65.16
2018-09-29T17:05:35.072Z,66.17
2018-09-29T17:08:03.432Z,66.46
2018-09-29T17:10:31.782Z,66.87
2018-09-29T17:13:00.123Z,67.79
2018-09-29T17:15:28.487Z,68.61
2018-09-29T17:17:56.825Z,69.67
2018-09-29T17:20:25.157Z,69.38
2018-09-29T17:22:53.869Z,69.69
2018-09-29T17:25:22.212Z,70.33
2018-09-29T17:27:50.561Z,70.49
2018-09-29T17:30:18.886Z,70.38
2018-09-29T17:32:47.303Z,70.76
2018-09-29T17:35:15.670Z,71.25
2018-09-29T17:37:44.168Z,71.10
2018-09-29T17:40:12.518Z,71.79
2018-09-29T17:42:40.851Z,72.08
2018-09-29T17:45:09.288Z,72.30
2018-09-29T17:47:37.915Z,71.97
2018-09-29T17:50:07.439Z,72.03
2018-09-29T17:52:35.806Z,72.74
2018-09-29T17:55:04.250Z,73.41
2018-09-29T17:57:32.590Z,73.19
2018-09-29T18:00:01.485Z,73.53
2018-09-29T18:02:29.808Z,73.50
2018-09-29T18:04:58.351Z,73.79
2018-09-29T18:07:26.955Z,73.87
2018-09-29T18:09:55.369Z,74.19
2018-09-29T18:12:24.411Z,74.61
2018-09-29T18:14:52.769Z,74.52
2018-09-29T18:17:21.254Z,74.85
2018-09-29T18:19:49.692Z,75.15
2018-09-29T18:22:18.019Z,74.66
2018-09-29T18:24:46.379Z,74.83
2018-09-29T18:27:14.833Z,75.74
2018-09-29T18:29:43.534Z,76.59
2018-09-29T18:32:11.861Z,76.92
2018-09-29T18:34:40.207Z,76.68
2018-09-29T18:37:08.591Z,76.32
2018-09-29T18:39:37.005Z,76.87
2018-09-29T18:42:05.324Z,77.16
2018-09-29T18:44:33.770Z,76.61
2018-09-29T18:47:02.558Z,77.69
2018-09-29T18:49:30.965Z,77.03
2018-09-29T18:51:59.316Z,77.41
2018-09-29T18:54:27.749Z,76.68
2018-09-29T18:56:56.287Z,77.45
2018-09-29T18:59:24.992Z,77.02
2018-09-29T19:01:53.392Z,78.05
2018-09-29T19:04:21.743Z,77.92
2018-09-29T19:06:50.432Z,77.21
2018-09-29T19:09:18.885Z,77.97
2018-09-29T19:11:47.349Z,77.99
2018-09-29T19:14:16.290Z,77.76
2018-09-29T19:16:44.828Z,78.35
2018-09-29T19:19:14.190Z,78.87
2018-09-29T19:21:42.563Z,78.63
2018-09-29T19:24:11.128Z,78.77
2018-09-29T19:26:39.490Z,77.74
2018-09-29T19:29:07.803Z,77.67
2018-09-29T19:31:36.206Z,78.94
2018-09-29T19:34:05.212Z,79.09
2018-09-29T19:36:33.549Z,78.63
2018-09-29T19:39:02.122Z,78.80
2018-09-29T19:41:31.152Z,78.43
2018-09-29T19:43:59.500Z,79.13
2018-09-29T19:46:28.170Z,79.22
2018-09-29T19:48:56.890Z,78.70
2018-09-29T19:51:25.382Z,78.95
2018-09-29T19:53:53.751Z,80.14
2018-09-29T19:56:22.134Z,80.12
2018-09-29T19:58:50.522Z,79.63
2018-09-29T20:01:18.959Z,80.22
2018-09-29T20:03:47.666Z,80.64
2018-09-29T20:06:16.317Z,79.87
2018-09-29T20:08:44.685Z,80.44
2018-09-29T20:11:13.354Z,79.29
2018-09-29T20:13:41.803Z,78.94
2018-09-29T20:16:12.500Z,80.68
2018-09-29T20:18:40.898Z,80.89
2018-09-29T20:21:09.254Z,81.38
2018-09-29T20:23:37.603Z,81.00
2018-09-29T20:26:05.975Z,80.68
2018-09-29T20:28:34.342Z,80.56
2018-09-29T20:31:02.858Z,81.03
2018-09-29T20:33:31.247Z,81.88
2018-09-29T20:35:59.589Z,80.42
2018-09-29T20:38:27.971Z,81.59
2018-09-29T20:40:56.395Z,81.48
2018-09-29T20:43:25.063Z,81.78
2018-09-29T20:45:53.415Z,81.51
2018-09-29T20:48:21.793Z,82.36
2018-09-29T20:50:50.158Z,81.31
2018-09-29T20:53:18.486Z,81.01
2018-09-29T20:55:47.053Z,81.01
2018-09-29T20:58:15.395Z,81.39
2018-09-29T21:00:43.920Z,80.89
2018-09-29T21:03:12.329Z,80.68
2018-09-29T21:05:40.698Z,81.41
2018-09-29T21:08:09.058Z,81.61
2018-09-29T21:10:37.513Z,80.86
2018-09-29T21:13:06.101Z,81.11
2018-09-29T21:15:34.510Z,81.44
2018-09-29T21:18:03.043Z,81.88
2018-09-29T21:20:31.355Z,81.25
2018-09-29T21:22:59.766Z,81.55
2018-09-29T21:25:28.083Z,81.97
2018-09-29T21:27:56.977Z,81.16
2018-09-29T21:30:45.959Z,81.25
2018-09-29T21:33:14.324Z,81.81
2018-09-29T21:35:42.827Z,81.50
2018-09-29T21:38:12.334Z,82.35
2018-09-29T21:40:40.731Z,82.02
2018-09-29T21:43:09.097Z,82.25
2018-09-29T21:45:37.451Z,83.51
2018-09-29T21:48:05.835Z,83.17
2018-09-29T21:50:34.163Z,83.11
2018-09-29T21:53:02.509Z,82.87
2018-09-29T21:55:30.812Z,82.70
2018-09-29T21:57:59.180Z,83.15
2018-09-29T22:00:32.775Z,83.12
2018-09-29T22:03:01.128Z,82.64
2018-09-29T22:05:29.487Z,82.41
2018-09-29T22:07:57.842Z,82.21
2018-09-29T22:10:26.142Z,82.60
2018-09-29T22:12:54.522Z,82.26
2018-09-29T22:15:22.923Z,82.83
2018-09-29T22:17:51.536Z,82.47
2018-09-29T22:20:20.131Z,82.04
2018-09-29T22:22:48.472Z,82.46
2018-09-29T22:25:16.883Z,82.32
2018-09-29T22:27:45.386Z,82.86
2018-09-29T22:30:13.979Z,82.06
2018-09-29T22:32:42.315Z,81.83
2018-09-29T22:35:10.628Z,81.65
2018-09-29T22:37:38.969Z,82.68
2018-09-29T22:40:07.467Z,82.98
2018-09-29T22:42:36.055Z,84.80
2018-09-29T22:45:04.395Z,86.16
2018-09-29T22:47:32.863Z,86.26
2018-09-29T22:50:01.323Z,85.13
2018-09-29T22:52:29.658Z,84.28
2018-09-29T22:54:58.038Z,84.30
2018-09-29T22:57:26.450Z,84.12
2018-09-29T22:59:54.763Z,83.12
2018-09-29T23:02:23.132Z,84.02
2018-09-29T23:04:51.450Z,83.57
2018-09-29T23:07:19.875Z,84.04
2018-09-29T23:09:48.207Z,83.57
2018-09-29T23:12:16.530Z,83.15
2018-09-29T23:14:44.874Z,83.72
2018-09-29T23:17:13.228Z,82.40
2018-09-29T23:19:41.562Z,83.09
2018-09-29T23:22:09.902Z,82.57
2018-09-29T23:24:38.244Z,83.20
2018-09-29T23:27:06.749Z,83.13
2018-09-29T23:29:35.101Z,83.17
2018-09-29T23:32:03.434Z,83.87
2018-09-29T23:34:31.770Z,83.93
2018-09-29T23:37:00.088Z,83.70
2018-09-29T23:39:28.415Z,83.65
2018-09-29T23:41:57.315Z,84.34
2018-09-29T23:44:25.687Z,84.52
2018-09-29T23:46:54.035Z,84.14
2018-09-29T23:49:22.378Z,83.92
2018-09-29T23:51:50.712Z,83.88
2018-09-29T23:54:19.073Z,84.45
2018-09-29T23:56:47.411Z,84.68
2018-09-29T23:59:15.880Z,84.58
